createdAt,value
2019-03-03T00:00:27.324Z,7.93
2019-03-03T00:02:54.562Z,8.37
2019-03-03T00:05:21.108Z,7.37
2019-03-03T00:07:48.055Z,7.23
2019-03-03T00:10:15.104Z,8.13
2019-03-03T00:12:42.021Z,8.87
2019-03-03T00:15:10.254Z,10.77
2019-03-03T00:17:36.866Z,8.60
2019-03-03T00:20:07.084Z,12.00
2019-03-03T00:22:33.739Z,6.73
2019-03-03T00:25:00.389Z,10.70
2019-03-03T00:27:27.026Z,8.93
2019-03-03T00:29:53.528Z,7.90
2019-03-03T00:32:20.925Z,9.67
2019-03-03T00:34:47.271Z,7.43
2019-03-03T00:37:18.391Z,8.30
2019-03-03T00:39:46.572Z,9.20
2019-03-03T00:42:18.081Z,5.87
2019-03-03T00:44:49.500Z,5.53
2019-03-03T00:47:20.882Z,9.20
2019-03-03T00:49:49.976Z,7.53
2019-03-03T00:52:20.903Z,6.57
2019-03-03T00:54:58.201Z,7.03
2019-03-03T00:57:26.591Z,8.03
2019-03-03T00:59:54.806Z,5.60
2019-03-03T01:02:26.306Z,5.10
2019-03-03T01:05:03.804Z,10.00
2019-03-03T01:07:38.122Z,5.83
2019-03-03T01:10:08.242Z,9.40
2019-03-03T01:12:36.701Z,6.43
2019-03-03T01:15:07.256Z,8.27
2019-03-03T01:17:41.268Z,5.50
2019-03-03T01:20:13.432Z,8.90
2019-03-03T01:22:41.810Z,9.73
2019-03-03T01:25:08.261Z,6.07
2019-03-03T01:27:34.552Z,8.43
2019-03-03T01:30:00.971Z,9.10
2019-03-03T01:32:27.615Z,7.37
2019-03-03T01:34:54.052Z,7.47
2019-03-03T01:37:20.401Z,6.10
2019-03-03T01:39:46.726Z,12.40
2019-03-03T01:42:13.047Z,6.40
2019-03-03T01:44:39.395Z,6.60
2019-03-03T01:47:05.724Z,6.13
2019-03-03T01:49:32.053Z,8.87
2019-03-03T01:51:58.407Z,7.43
2019-03-03T01:54:24.922Z,5.83
2019-03-03T01:56:51.352Z,6.77
2019-03-03T01:59:17.580Z,6.30
2019-03-03T02:01:45.136Z,7.33
2019-03-03T02:04:11.477Z,8.63
2019-03-03T02:06:37.904Z,8.90
2019-03-03T02:09:08.020Z,6.60
2019-03-03T02:11:34.353Z,6.70
2019-03-03T02:14:00.683Z,8.43
2019-03-03T02:16:26.981Z,7.47
2019-03-03T02:18:53.775Z,6.93
2019-03-03T02:21:20.186Z,5.23
2019-03-03T02:23:46.423Z,10.10
2019-03-03T02:26:12.947Z,5.13
2019-03-03T02:28:40.880Z,8.30
2019-03-03T02:31:07.569Z,8.40
2019-03-03T02:33:34.095Z,8.00
2019-03-03T02:36:00.530Z,10.67
2019-03-03T02:38:26.957Z,6.00
2019-03-03T02:40:53.286Z,9.23
2019-03-03T02:43:19.662Z,10.53
2019-03-03T02:45:46.254Z,12.00
2019-03-03T02:48:12.896Z,9.53
2019-03-03T02:50:39.321Z,6.70
2019-03-03T02:53:05.656Z,7.03
2019-03-03T02:55:32.090Z,9.77
2019-03-03T02:57:58.657Z,10.50
2019-03-03T03:00:25.167Z,6.40
2019-03-03T03:02:53.366Z,8.90
2019-03-03T03:05:26.317Z,8.03
2019-03-03T03:07:57.767Z,7.50
2019-03-03T03:10:25.955Z,10.47
2019-03-03T03:12:54.319Z,6.83
2019-03-03T03:15:40.366Z,12.63
2019-03-03T03:18:30.357Z,6.83
2019-03-03T03:21:01.501Z,10.20
2019-03-03T03:23:41.608Z,8.53
2019-03-03T03:26:18.494Z,8.70
2019-03-03T03:29:02.778Z,12.13
2019-03-03T03:31:33.603Z,7.53
2019-03-03T03:34:07.766Z,10.57
2019-03-03T03:36:41.769Z,9.80
2019-03-03T03:39:26.673Z,10.67
2019-03-03T03:42:06.715Z,8.07
2019-03-03T03:44:51.501Z,11.57
2019-03-03T03:47:22.735Z,11.07
2019-03-03T03:50:02.786Z,10.07
2019-03-03T03:52:33.701Z,9.00
2019-03-03T03:55:14.022Z,8.17
2019-03-03T03:57:51.218Z,9.67
2019-03-03T04:00:35.966Z,9.00
2019-03-03T04:03:04.372Z,8.93
2019-03-03T04:05:38.331Z,9.97
2019-03-03T04:08:06.862Z,6.37
2019-03-03T04:10:51.661Z,10.67
2019-03-03T04:13:19.920Z,10.20
2019-03-03T04:16:04.471Z,9.63
2019-03-03T04:18:32.607Z,10.97
2019-03-03T04:21:00.800Z,10.73
2019-03-03T04:23:37.769Z,11.93
2019-03-03T04:26:09.171Z,10.90
2019-03-03T04:28:37.423Z,12.27
2019-03-03T04:31:17.700Z,15.83
2019-03-03T04:33:45.931Z,14.73
2019-03-03T04:36:20.072Z,8.70
2019-03-03T04:39:03.085Z,10.70
2019-03-03T04:41:34.241Z,12.30
2019-03-03T04:44:09.528Z,11.57
2019-03-03T04:46:49.781Z,11.10
2019-03-03T04:49:20.698Z,11.33
2019-03-03T04:52:06.792Z,10.73
2019-03-03T04:54:51.276Z,12.47
2019-03-03T04:57:22.156Z,12.13
2019-03-03T05:00:06.748Z,13.43
2019-03-03T05:02:34.953Z,11.70
2019-03-03T05:05:11.984Z,11.17
2019-03-03T05:07:56.816Z,12.07
2019-03-03T05:10:37.159Z,13.50
2019-03-03T05:13:08.333Z,8.17
2019-03-03T05:15:36.604Z,9.97
2019-03-03T05:18:05.194Z,11.80
2019-03-03T05:20:33.396Z,11.27
2019-03-03T05:22:59.759Z,10.03
2019-03-03T05:25:26.260Z,9.53
2019-03-03T05:27:52.597Z,11.90
2019-03-03T05:30:19.012Z,9.23
2019-03-03T05:32:45.623Z,10.77
2019-03-03T05:35:11.940Z,9.83
2019-03-03T05:37:38.297Z,10.67
2019-03-03T05:40:06.806Z,11.13
2019-03-03T05:42:33.375Z,16.03
2019-03-03T05:45:00.142Z,14.27
2019-03-03T05:47:26.550Z,11.67
2019-03-03T05:49:52.864Z,14.80
2019-03-03T05:52:19.238Z,13.00
2019-03-03T05:54:45.480Z,14.27
2019-03-03T05:57:11.790Z,14.43
2019-03-03T05:59:38.090Z,12.27
2019-03-03T06:02:04.434Z,11.67
2019-03-03T06:04:30.746Z,11.17
2019-03-03T06:06:57.303Z,11.27
2019-03-03T06:09:23.742Z,10.63
2019-03-03T06:11:50.119Z,10.47
2019-03-03T06:14:16.401Z,10.43
2019-03-03T06:16:42.738Z,15.30
2019-03-03T06:19:09.350Z,17.33
2019-03-03T06:21:36.055Z,12.93
2019-03-03T06:24:02.468Z,12.57
2019-03-03T06:26:28.763Z,12.80
2019-03-03T06:28:55.197Z,11.97
2019-03-03T06:31:21.771Z,11.57
2019-03-03T06:33:48.306Z,14.13
2019-03-03T06:36:14.595Z,9.63
2019-03-03T06:38:41.007Z,13.80
2019-03-03T06:41:07.656Z,9.80
2019-03-03T06:43:34.062Z,12.73
2019-03-03T06:46:00.462Z,13.80
2019-03-03T06:48:46.574Z,14.20
2019-03-03T06:51:12.865Z,14.87
2019-03-03T06:53:39.214Z,15.87
2019-03-03T06:56:05.581Z,12.50
2019-03-03T06:58:31.930Z,14.60
2019-03-03T07:00:58.393Z,14.60
2019-03-03T07:03:24.820Z,12.20
2019-03-03T07:05:51.117Z,10.30
2019-03-03T07:08:17.419Z,16.67
2019-03-03T07:10:43.737Z,17.27
2019-03-03T07:13:10.033Z,14.60
2019-03-03T07:15:36.357Z,13.30
2019-03-03T07:18:02.764Z,12.60
2019-03-03T07:20:29.039Z,9.00
2019-03-03T07:22:55.335Z,15.37
2019-03-03T07:25:21.609Z,11.87
2019-03-03T07:27:47.918Z,10.97
2019-03-03T07:30:15.010Z,13.37
2019-03-03T07:32:43.410Z,11.80
2019-03-03T07:35:09.710Z,13.63
2019-03-03T07:37:36.533Z,9.60
2019-03-03T07:40:04.741Z,14.87
2019-03-03T07:42:31.035Z,10.77
2019-03-03T07:44:57.336Z,9.40
2019-03-03T07:47:23.899Z,13.03
2019-03-03T07:49:50.215Z,14.17
2019-03-03T07:52:16.502Z,11.47
2019-03-03T07:54:42.801Z,10.30
2019-03-03T07:57:09.102Z,11.63
2019-03-03T07:59:35.487Z,11.00
2019-03-03T08:02:01.701Z,12.40
2019-03-03T08:04:28.256Z,13.23
2019-03-03T08:06:54.549Z,10.27
2019-03-03T08:09:20.879Z,12.23
2019-03-03T08:11:47.292Z,10.40
2019-03-03T08:14:13.609Z,11.00
2019-03-03T08:16:39.899Z,13.47
2019-03-03T08:19:06.201Z,9.07
2019-03-03T08:21:32.514Z,12.97
2019-03-03T08:23:58.807Z,13.20
2019-03-03T08:26:25.124Z,11.53
2019-03-03T08:28:51.461Z,10.77
2019-03-03T08:31:17.767Z,11.40
2019-03-03T08:33:44.056Z,8.47
2019-03-03T08:36:10.381Z,8.07
2019-03-03T08:38:36.676Z,9.63
2019-03-03T08:41:03.257Z,8.40
2019-03-03T08:43:34.655Z,12.30
2019-03-03T08:46:19.166Z,7.80
2019-03-03T08:48:53.169Z,8.83
2019-03-03T08:51:27.660Z,10.10
2019-03-03T08:54:12.497Z,9.50
2019-03-03T08:56:57.117Z,7.37
2019-03-03T08:59:25.535Z,8.93
2019-03-03T09:01:53.930Z,10.20
2019-03-03T09:04:22.090Z,6.33
2019-03-03T09:06:56.525Z,7.87
2019-03-03T09:09:24.716Z,8.13
2019-03-03T09:12:01.803Z,10.77
2019-03-03T09:14:48.238Z,7.60
2019-03-03T09:17:31.522Z,12.53
2019-03-03T09:20:03.209Z,6.83
2019-03-03T09:22:31.425Z,9.63
2019-03-03T09:25:06.007Z,7.73
2019-03-03T09:27:43.137Z,8.07
2019-03-03T09:30:12.467Z,8.97
2019-03-03T09:32:43.474Z,6.27
2019-03-03T09:35:11.786Z,8.70
2019-03-03T09:37:51.888Z,6.47
2019-03-03T09:40:20.088Z,6.27
2019-03-03T09:43:00.357Z,6.13
2019-03-03T09:45:31.267Z,6.53
2019-03-03T09:48:02.198Z,5.93
2019-03-03T09:50:30.412Z,6.37
2019-03-03T09:52:58.646Z,7.57
2019-03-03T09:55:28.597Z,6.43
2019-03-03T09:58:05.823Z,7.00
2019-03-03T10:00:50.349Z,4.83
2019-03-03T10:03:27.319Z,6.57
2019-03-03T10:06:12.058Z,7.30
2019-03-03T10:08:42.950Z,5.57
2019-03-03T10:11:27.738Z,7.53
2019-03-03T10:13:56.299Z,6.60
2019-03-03T10:16:24.499Z,7.20
2019-03-03T10:18:52.734Z,6.00
2019-03-03T10:21:23.713Z,8.77
2019-03-03T10:23:55.287Z,5.60
2019-03-03T10:26:23.735Z,5.33
2019-03-03T10:28:52.029Z,5.77
2019-03-03T10:31:37.081Z,6.67
2019-03-03T10:34:05.458Z,6.30
2019-03-03T10:36:37.035Z,4.23
2019-03-03T10:39:13.688Z,4.33
2019-03-03T10:41:58.432Z,5.90
2019-03-03T10:44:43.009Z,4.20
2019-03-03T10:47:14.140Z,4.60
2019-03-03T10:49:42.244Z,4.93
2019-03-03T10:52:10.863Z,6.83
2019-03-03T10:54:53.857Z,5.53
2019-03-03T10:57:37.098Z,7.80
2019-03-03T11:00:20.868Z,6.40
2019-03-03T11:02:49.213Z,4.00
2019-03-03T11:05:26.134Z,4.33
2019-03-03T11:07:57.296Z,4.30
2019-03-03T11:10:31.784Z,4.97
2019-03-03T11:13:00.102Z,5.17
2019-03-03T11:15:43.102Z,4.77
2019-03-03T11:18:23.529Z,4.07
2019-03-03T11:21:08.305Z,4.33
2019-03-03T11:23:36.831Z,4.20
2019-03-03T11:26:07.833Z,12.60
2019-03-03T11:28:36.024Z,6.43
2019-03-03T11:31:13.264Z,6.80
2019-03-03T11:33:50.154Z,4.70
2019-03-03T11:36:24.679Z,4.73
2019-03-03T11:38:58.632Z,4.23
2019-03-03T11:41:26.936Z,5.07
2019-03-03T11:43:57.834Z,5.30
2019-03-03T11:46:26.006Z,4.77
2019-03-03T11:48:54.206Z,6.57
2019-03-03T11:51:28.155Z,5.93
2019-03-03T11:53:56.367Z,5.57
2019-03-03T11:56:36.384Z,6.83
2019-03-03T11:59:22.499Z,5.77
2019-03-03T12:01:53.394Z,6.27
2019-03-03T12:04:38.014Z,4.90
2019-03-03T12:07:06.419Z,6.97
2019-03-03T12:09:34.711Z,6.57
2019-03-03T12:12:20.803Z,6.47
2019-03-03T12:14:57.987Z,6.10
2019-03-03T12:17:41.172Z,5.13
2019-03-03T12:20:11.481Z,5.90
2019-03-03T12:22:48.648Z,4.70
2019-03-03T12:25:22.637Z,5.90
2019-03-03T12:28:07.170Z,6.57
2019-03-03T12:30:51.682Z,4.40
2019-03-03T12:33:22.582Z,6.07
2019-03-03T12:35:50.812Z,7.57
2019-03-03T12:38:25.037Z,5.07
2019-03-03T12:41:01.926Z,6.43
2019-03-03T12:43:33.077Z,5.33
2019-03-03T12:46:01.265Z,6.93
2019-03-03T12:48:41.421Z,4.87
2019-03-03T12:51:25.892Z,5.13
2019-03-03T12:54:05.892Z,5.60
2019-03-03T12:56:39.781Z,5.03
2019-03-03T12:59:08.014Z,7.23
2019-03-03T13:01:48.067Z,7.33
2019-03-03T13:04:16.302Z,6.70
2019-03-03T13:06:50.201Z,7.60
2019-03-03T13:09:34.781Z,7.53
2019-03-03T13:12:14.851Z,5.67
2019-03-03T13:14:46.016Z,4.87
2019-03-03T13:17:23.065Z,8.57
2019-03-03T13:20:00.470Z,5.80
2019-03-03T13:22:45.156Z,9.60
2019-03-03T13:25:13.472Z,7.30
2019-03-03T13:27:41.643Z,7.33
2019-03-03T13:30:18.675Z,8.60
2019-03-03T13:32:49.562Z,9.83
2019-03-03T13:35:20.495Z,10.00
2019-03-03T13:37:54.767Z,9.43
2019-03-03T13:40:25.718Z,8.33
2019-03-03T13:42:59.213Z,8.93
2019-03-03T13:45:27.207Z,9.70
2019-03-03T13:47:53.549Z,12.07
2019-03-03T13:50:20.219Z,12.23
2019-03-03T13:52:46.582Z,11.50
2019-03-03T13:55:13.657Z,10.03
2019-03-03T13:57:40.049Z,9.63
2019-03-03T14:00:09.662Z,7.87
2019-03-03T14:02:36.298Z,9.27
2019-03-03T14:05:04.837Z,11.37
2019-03-03T14:07:32.150Z,9.93
2019-03-03T14:09:58.429Z,11.00
2019-03-03T14:12:24.727Z,10.17
2019-03-03T14:14:51.116Z,12.83
2019-03-03T14:17:17.432Z,13.03
2019-03-03T14:19:43.754Z,7.97
2019-03-03T14:22:10.182Z,9.43
2019-03-03T14:24:36.508Z,11.93
2019-03-03T14:27:10.325Z,7.73
2019-03-03T14:29:31.222Z,11.20
2019-03-03T14:31:57.795Z,10.70
2019-03-03T14:34:24.351Z,14.50
2019-03-03T14:36:50.707Z,8.47
2019-03-03T14:39:17.157Z,11.90
2019-03-03T14:41:43.469Z,11.97
2019-03-03T14:44:09.760Z,11.20
2019-03-03T14:46:36.166Z,10.97
2019-03-03T14:49:02.695Z,13.57
2019-03-03T14:51:28.997Z,13.37
2019-03-03T14:53:55.437Z,11.77
2019-03-03T14:56:21.757Z,11.90
2019-03-03T14:58:48.091Z,9.43
2019-03-03T15:01:15.332Z,10.30
2019-03-03T15:03:41.644Z,10.07
2019-03-03T15:06:07.975Z,11.50
2019-03-03T15:08:34.295Z,9.60
2019-03-03T15:11:00.638Z,8.97
2019-03-03T15:13:27.064Z,15.50
2019-03-03T15:15:53.468Z,11.63
2019-03-03T15:18:19.865Z,13.90
2019-03-03T15:20:46.389Z,12.00
2019-03-03T15:23:12.967Z,10.80
2019-03-03T15:25:39.375Z,13.30
2019-03-03T15:28:25.534Z,12.97
2019-03-03T15:30:52.098Z,13.80
2019-03-03T15:33:18.418Z,13.53
2019-03-03T15:35:44.751Z,10.30
2019-03-03T15:38:11.471Z,8.90
2019-03-03T15:40:37.804Z,11.83
2019-03-03T15:43:04.237Z,11.57
2019-03-03T15:45:31.974Z,10.17
2019-03-03T15:47:58.529Z,8.83
2019-03-03T15:50:24.839Z,12.87
2019-03-03T15:52:51.319Z,7.57
2019-03-03T15:55:20.180Z,11.13
2019-03-03T15:57:46.581Z,10.00
2019-03-03T16:00:19.010Z,8.97
2019-03-03T16:02:45.739Z,11.23
2019-03-03T16:05:13.108Z,9.97
2019-03-03T16:07:39.758Z,10.90
2019-03-03T16:10:09.395Z,12.53
2019-03-03T16:12:35.701Z,12.60
2019-03-03T16:15:03.897Z,11.27
2019-03-03T16:17:30.192Z,9.23
2019-03-03T16:19:56.511Z,10.90
2019-03-03T16:22:22.932Z,12.37
2019-03-03T16:24:49.259Z,11.13
2019-03-03T16:27:15.532Z,9.37
2019-03-03T16:29:41.891Z,10.03
2019-03-03T16:32:08.231Z,7.77
2019-03-03T16:34:34.551Z,11.00
2019-03-03T16:37:00.878Z,8.80
2019-03-03T16:39:27.177Z,10.40
2019-03-03T16:41:53.457Z,10.80
2019-03-03T16:44:19.790Z,11.40
2019-03-03T16:46:46.097Z,11.40
2019-03-03T16:49:12.359Z,10.87
2019-03-03T16:51:38.660Z,12.33
2019-03-03T16:54:05.109Z,10.87
2019-03-03T16:56:31.782Z,11.80
2019-03-03T16:58:58.117Z,9.60
2019-03-03T17:01:24.702Z,9.23
2019-03-03T17:03:50.924Z,9.77
2019-03-03T17:06:17.233Z,8.17
2019-03-03T17:08:43.597Z,10.67
2019-03-03T17:11:09.918Z,12.57
2019-03-03T17:13:36.315Z,8.97
2019-03-03T17:16:02.842Z,8.83
2019-03-03T17:18:29.133Z,10.20
2019-03-03T17:20:55.441Z,10.57
2019-03-03T17:23:21.736Z,8.03
2019-03-03T17:25:48.139Z,10.43
2019-03-03T17:28:14.548Z,12.13
2019-03-03T17:30:42.852Z,8.47
2019-03-03T17:33:09.259Z,10.53
2019-03-03T17:35:35.562Z,13.50
2019-03-03T17:38:01.869Z,10.77
2019-03-03T17:40:28.209Z,10.63
2019-03-03T17:42:54.725Z,11.17
2019-03-03T17:45:22.125Z,8.83
2019-03-03T17:47:48.743Z,9.40
2019-03-03T17:50:18.848Z,8.60
2019-03-03T17:52:45.195Z,11.50
2019-03-03T17:55:12.582Z,12.67
2019-03-03T17:57:38.975Z,8.17
2019-03-03T18:00:11.316Z,8.60
2019-03-03T18:02:37.668Z,13.40
2019-03-03T18:05:05.159Z,10.33
2019-03-03T18:07:31.513Z,10.50
2019-03-03T18:09:57.843Z,7.77
2019-03-03T18:12:24.098Z,9.97
2019-03-03T18:14:50.903Z,9.70
2019-03-03T18:17:17.201Z,8.47
2019-03-03T18:19:43.541Z,11.07
2019-03-03T18:22:09.890Z,8.70
2019-03-03T18:24:36.207Z,10.27
2019-03-03T18:27:02.634Z,10.40
2019-03-03T18:29:28.965Z,10.03
2019-03-03T18:31:55.285Z,9.20
2019-03-03T18:34:21.615Z,8.37
2019-03-03T18:36:47.908Z,9.43
2019-03-03T18:39:14.523Z,7.67
2019-03-03T18:41:40.979Z,7.80
2019-03-03T18:44:07.301Z,10.93
2019-03-03T18:46:33.690Z,9.37
2019-03-03T18:48:59.979Z,8.70
2019-03-03T18:51:26.381Z,7.03
2019-03-03T18:53:52.686Z,8.27
2019-03-03T18:56:19.170Z,10.47
2019-03-03T18:58:45.494Z,10.10
2019-03-03T19:01:11.909Z,9.37
2019-03-03T19:03:38.220Z,10.10
2019-03-03T19:06:04.537Z,12.03
2019-03-03T19:08:30.929Z,9.53
2019-03-03T19:10:57.262Z,10.10
2019-03-03T19:13:23.747Z,8.87
2019-03-03T19:15:50.081Z,8.70
2019-03-03T19:18:16.498Z,9.70
2019-03-03T19:20:42.789Z,8.57
2019-03-03T19:23:09.104Z,8.70
2019-03-03T19:25:35.416Z,8.43
2019-03-03T19:28:01.725Z,9.30
2019-03-03T19:30:28.890Z,7.50
2019-03-03T19:33:01.979Z,9.10
2019-03-03T19:35:28.410Z,8.33
2019-03-03T19:37:54.735Z,12.77
2019-03-03T19:40:21.184Z,7.83
2019-03-03T19:42:47.513Z,7.03
2019-03-03T19:45:20.444Z,9.47
2019-03-03T19:47:47.043Z,9.67
2019-03-03T19:50:13.845Z,11.03
2019-03-03T19:52:40.226Z,7.30
2019-03-03T19:55:09.658Z,10.30
2019-03-03T19:57:36.043Z,12.23
2019-03-03T20:00:04.579Z,12.97
2019-03-03T20:02:30.963Z,9.90
2019-03-03T20:04:57.376Z,9.43
2019-03-03T20:07:23.805Z,10.23
2019-03-03T20:09:51.238Z,7.57
2019-03-03T20:12:17.488Z,8.13
2019-03-03T20:14:43.819Z,6.70
2019-03-03T20:17:10.142Z,7.17
2019-03-03T20:19:37.523Z,7.97
2019-03-03T20:22:03.934Z,8.50
2019-03-03T20:24:30.232Z,9.87
2019-03-03T20:26:56.687Z,6.63
2019-03-03T20:29:22.926Z,6.30
2019-03-03T20:31:49.205Z,7.20
2019-03-03T20:34:15.533Z,7.40
2019-03-03T20:36:41.888Z,5.93
2019-03-03T20:39:08.285Z,6.83
2019-03-03T20:41:34.580Z,6.33
2019-03-03T20:44:01.290Z,6.23
2019-03-03T20:46:27.583Z,7.13
2019-03-03T20:48:54.231Z,6.13
2019-03-03T20:51:20.553Z,8.40
2019-03-03T20:53:46.970Z,8.33
2019-03-03T20:56:13.255Z,7.87
2019-03-03T20:58:39.562Z,7.17
2019-03-03T21:01:05.891Z,4.37
2019-03-03T21:03:32.248Z,8.20
2019-03-03T21:05:58.617Z,5.40
2019-03-03T21:08:24.975Z,6.23
2019-03-03T21:10:51.388Z,8.00
2019-03-03T21:13:17.694Z,5.50
2019-03-03T21:15:44.020Z,5.60
2019-03-03T21:18:10.413Z,5.37
2019-03-03T21:20:36.749Z,6.20
2019-03-03T21:23:03.171Z,8.23
2019-03-03T21:25:29.498Z,6.63
2019-03-03T21:27:55.817Z,6.63
2019-03-03T21:30:27.257Z,7.03
2019-03-03T21:32:53.879Z,7.00
2019-03-03T21:35:20.401Z,5.47
2019-03-03T21:37:47.031Z,6.37
2019-03-03T21:40:20.925Z,6.20
2019-03-03T21:42:47.405Z,7.47
2019-03-03T21:45:20.729Z,5.37
2019-03-03T21:47:47.125Z,7.27
2019-03-03T21:50:15.251Z,6.37
2019-03-03T21:52:41.662Z,6.20
2019-03-03T21:55:09.952Z,9.13
2019-03-03T21:57:36.241Z,7.47
2019-03-03T22:00:06.351Z,7.37
2019-03-03T22:02:32.769Z,5.70
2019-03-03T22:04:59.056Z,5.60
2019-03-03T22:07:25.502Z,5.70
2019-03-03T22:09:51.986Z,6.17
2019-03-03T22:12:18.315Z,8.63
2019-03-03T22:14:44.618Z,5.23
2019-03-03T22:17:10.939Z,7.90
2019-03-03T22:19:37.249Z,7.13
2019-03-03T22:22:03.608Z,5.77
2019-03-03T22:24:30.171Z,5.20
2019-03-03T22:26:56.395Z,6.43
2019-03-03T22:29:22.605Z,5.93
2019-03-03T22:31:48.968Z,5.27
2019-03-03T22:34:15.206Z,5.80
2019-03-03T22:36:41.491Z,6.00
2019-03-03T22:39:07.797Z,7.27
2019-03-03T22:41:34.121Z,3.87
2019-03-03T22:44:00.462Z,5.77
2019-03-03T22:46:26.746Z,6.57
2019-03-03T22:48:53.077Z,5.17
2019-03-03T22:51:19.392Z,4.83
2019-03-03T22:53:45.951Z,6.37
2019-03-03T22:56:12.293Z,6.67
2019-03-03T22:58:38.606Z,6.67
2019-03-03T23:01:08.914Z,6.03
2019-03-03T23:03:41.765Z,4.43
2019-03-03T23:06:26.861Z,6.40
2019-03-03T23:09:08.701Z,6.10
2019-03-03T23:11:47.903Z,5.23
2019-03-03T23:14:35.884Z,7.80
2019-03-03T23:17:23.949Z,5.53
2019-03-03T23:20:02.861Z,5.17
2019-03-03T23:22:59.981Z,5.83
2019-03-03T23:25:35.983Z,4.30
2019-03-03T23:28:02.404Z,5.67
2019-03-03T23:30:28.753Z,5.83
2019-03-03T23:32:55.015Z,6.70
2019-03-03T23:35:21.311Z,4.03
2019-03-03T23:37:47.710Z,7.70
2019-03-03T23:40:14.092Z,5.47
2019-03-03T23:42:40.481Z,6.37
2019-03-03T23:45:08.989Z,4.80
2019-03-03T23:47:35.317Z,6.00
2019-03-03T23:50:01.622Z,5.03
2019-03-03T23:52:27.912Z,5.30
2019-03-03T23:54:55.103Z,5.87
2019-03-03T23:57:23.343Z,5.40
2019-03-03T23:59:49.548Z,5.80
